createdAt,value
2018-09-08T00:00:03.053Z,12.00
2018-09-08T00:01:03.000Z,12.10
2018-09-08T00:02:02.688Z,12.07
2018-09-08T00:03:02.729Z,12.07
2018-09-08T00:04:02.951Z,12.07
2018-09-08T00:05:02.711Z,12.13
2018-09-08T00:06:02.622Z,12.14
2018-09-08T00:07:02.601Z,12.17
2018-09-08T00:08:02.737Z,12.13
2018-09-08T00:09:02.566Z,12.13
2018-09-08T00:10:02.911Z,12.15
2018-09-08T00:11:02.573Z,12.11
2018-09-08T00:12:02.555Z,12.11
2018-09-08T00:13:02.494Z,12.08
2018-09-08T00:14:02.623Z,12.17
2018-09-08T00:15:02.460Z,12.18
2018-09-08T00:16:02.755Z,12.18
2018-09-08T00:17:02.413Z,12.18
2018-09-08T00:18:02.753Z,12.28
2018-09-08T00:19:02.379Z,12.23
2018-09-08T00:20:02.490Z,12.35
2018-09-08T00:21:02.521Z,12.23
2018-09-08T00:22:02.714Z,12.17
2018-09-08T00:23:02.481Z,12.29
2018-09-08T00:24:02.573Z,12.26
2018-09-08T00:25:02.284Z,12.30
2018-09-08T00:26:03.195Z,12.36
2018-09-08T00:27:02.277Z,12.22
2018-09-08T00:28:03.774Z,12.21
2018-09-08T00:29:02.212Z,12.14
2018-09-08T00:30:02.255Z,12.15
2018-09-08T00:31:02.354Z,12.17
2018-09-08T00:32:02.375Z,12.05
2018-09-08T00:33:02.244Z,12.04
2018-09-08T00:34:02.414Z,12.00
2018-09-08T00:35:02.090Z,12.04
2018-09-08T00:36:02.182Z,11.93
2018-09-08T00:37:02.065Z,11.91
2018-09-08T00:38:02.175Z,11.79
2018-09-08T00:39:02.076Z,11.79
2018-09-08T00:40:02.336Z,11.84
2018-09-08T00:41:01.994Z,11.80
2018-09-08T00:42:03.274Z,11.76
2018-09-08T00:43:01.955Z,11.85
2018-09-08T00:44:01.934Z,11.85
2018-09-08T00:45:01.920Z,11.82
2018-09-08T00:46:01.905Z,11.80
2018-09-08T00:47:02.233Z,11.80
2018-09-08T00:48:01.857Z,11.77
2018-09-08T00:49:01.837Z,11.91
2018-09-08T00:50:01.833Z,11.87
2018-09-08T00:51:02.227Z,11.82
2018-09-08T00:52:01.821Z,11.79
2018-09-08T00:53:01.913Z,11.88
2018-09-08T00:54:02.422Z,11.77
2018-09-08T00:55:01.845Z,11.73
2018-09-08T00:56:01.746Z,11.67
2018-09-08T00:57:01.768Z,11.80
2018-09-08T00:58:01.704Z,11.70
2018-09-08T00:59:01.662Z,11.73
2018-09-08T01:00:01.691Z,11.62
2018-09-08T01:01:01.923Z,11.58
2018-09-08T01:02:01.664Z,11.61
2018-09-08T01:03:01.593Z,11.54
2018-09-08T01:04:01.571Z,11.45
2018-09-08T01:05:01.584Z,11.40
2018-09-08T01:06:01.586Z,11.46
2018-09-08T01:07:01.553Z,11.41
2018-09-08T01:08:01.856Z,11.33
2018-09-08T01:09:01.509Z,11.28
2018-09-08T01:10:01.580Z,11.33
2018-09-08T01:11:01.542Z,11.31
2018-09-08T01:12:01.472Z,11.31
2018-09-08T01:13:01.448Z,11.16
2018-09-08T01:14:01.387Z,11.20
2018-09-08T01:15:01.700Z,11.19
2018-09-08T01:16:01.355Z,11.19
2018-09-08T01:17:01.337Z,11.31
2018-09-08T01:18:01.326Z,11.28
2018-09-08T01:19:01.301Z,11.28
2018-09-08T01:20:01.333Z,11.18
2018-09-08T01:21:01.312Z,11.28
2018-09-08T01:22:01.808Z,11.33
2018-09-08T01:23:01.361Z,11.34
2018-09-08T01:24:01.209Z,11.33
2018-09-08T01:25:01.260Z,11.30
2018-09-08T01:26:01.264Z,11.30
2018-09-08T01:30:01.774Z,11.31
2018-09-08T01:31:01.183Z,11.33
2018-09-08T01:32:01.187Z,11.33
2018-09-08T01:33:01.090Z,11.45
2018-09-08T01:34:01.264Z,11.48
2018-09-08T01:35:01.014Z,11.48
2018-09-08T01:36:01.354Z,11.54
2018-09-08T01:38:00.959Z,11.67
2018-09-08T01:39:00.943Z,11.56
2018-09-08T01:40:00.919Z,11.66
2018-09-08T01:41:00.951Z,11.56
2018-09-08T01:42:01.207Z,11.64
2018-09-08T01:43:00.912Z,11.64
2018-09-08T01:45:00.827Z,11.59
2018-09-08T01:46:00.830Z,11.64
2018-09-08T01:47:00.795Z,11.74
2018-09-08T01:48:01.120Z,11.62
2018-09-08T01:49:00.771Z,11.62
2018-09-08T01:50:00.802Z,11.58
2018-09-08T01:51:01.016Z,11.58
2018-09-08T01:53:00.870Z,11.66
2018-09-08T01:54:01.076Z,11.64
2018-09-08T01:55:00.689Z,11.74
2018-09-08T01:56:00.735Z,11.66
2018-09-08T01:57:01.304Z,11.61
2018-09-08T01:58:00.657Z,11.61
2018-09-08T01:59:00.613Z,11.67
2018-09-08T02:00:00.930Z,11.58
2018-09-08T02:01:00.541Z,11.59
2018-09-08T02:02:00.515Z,11.52
2018-09-08T02:03:00.499Z,11.54
2018-09-08T02:04:00.482Z,11.49
2018-09-08T02:05:00.463Z,11.41
2018-09-08T02:06:00.864Z,11.51
2018-09-08T02:07:00.765Z,11.43
2018-09-08T02:08:00.553Z,11.41
2018-09-08T02:09:00.538Z,11.43
2018-09-08T02:10:00.410Z,11.48
2018-09-08T02:11:00.448Z,11.52
2018-09-08T02:12:00.399Z,11.46
2018-09-08T02:13:00.682Z,11.43
2018-09-08T02:15:00.395Z,11.38
2018-09-08T02:16:00.261Z,11.43
2018-09-08T02:17:00.261Z,11.46
2018-09-08T02:18:00.325Z,11.40
2018-09-08T02:19:00.265Z,11.55
2018-09-08T02:20:00.516Z,11.59
2018-09-08T02:22:00.159Z,11.43
2018-09-08T02:23:00.142Z,11.51
2018-09-08T02:24:00.175Z,11.45
2018-09-08T02:25:00.162Z,11.46
2018-09-08T02:26:00.085Z,11.45
2018-09-08T02:27:00.375Z,11.34
2018-09-08T02:28:00.443Z,11.37
2018-09-08T02:29:00.027Z,11.36
2018-09-08T02:30:00.197Z,11.36
2018-09-08T02:31:00.037Z,11.31
2018-09-08T02:31:59.979Z,11.36
2018-09-08T02:33:00.009Z,11.33
2018-09-08T02:35:00.227Z,11.36
2018-09-08T02:36:59.884Z,11.31
2018-09-08T02:37:59.872Z,11.36
2018-09-08T02:38:59.928Z,11.37
2018-09-08T02:39:59.857Z,11.34
2018-09-08T02:40:59.812Z,11.40
2018-09-08T02:42:00.095Z,11.41
2018-09-08T02:42:59.806Z,11.46
2018-09-08T02:43:59.873Z,11.55
2018-09-08T02:45:00.031Z,11.55
2018-09-08T02:45:59.797Z,11.54
2018-09-08T02:46:59.834Z,11.56
2018-09-08T02:47:59.686Z,11.62
2018-09-08T02:48:59.958Z,11.69
2018-09-08T02:49:59.657Z,11.69
2018-09-08T02:50:59.712Z,11.77
2018-09-08T02:52:59.685Z,11.99
2018-09-08T02:53:59.677Z,12.05
2018-09-08T02:54:59.553Z,12.10
2018-09-08T02:55:59.831Z,12.14
2018-09-08T02:57:59.548Z,12.21
2018-09-08T02:58:59.527Z,12.22
2018-09-08T02:59:59.496Z,12.28
2018-09-08T03:01:01.264Z,12.35
2018-09-08T03:01:59.849Z,12.33
2018-09-08T03:02:59.426Z,12.29
2018-09-08T03:03:59.454Z,12.48
2018-09-08T03:04:59.369Z,12.46
2018-09-08T03:05:59.421Z,12.44
2018-09-08T03:06:59.344Z,12.51
2018-09-08T03:07:59.755Z,12.46
2018-09-08T03:10:00.042Z,12.48
2018-09-08T03:10:59.357Z,12.48
2018-09-08T03:11:59.414Z,12.53
2018-09-08T03:12:59.323Z,12.44
2018-09-08T03:13:59.501Z,12.48
2018-09-08T03:14:59.188Z,12.50
2018-09-08T03:15:59.165Z,12.51
2018-09-08T03:16:59.163Z,12.53
2018-09-08T03:17:59.181Z,12.48
2018-09-08T03:18:59.117Z,12.55
2018-09-08T03:19:59.399Z,12.48
2018-09-08T03:20:59.083Z,12.46
2018-09-08T03:21:59.067Z,12.44
2018-09-08T03:22:59.046Z,12.47
2018-09-08T03:23:59.078Z,12.33
2018-09-08T03:24:59.023Z,12.46
2018-09-08T03:25:59.300Z,12.44
2018-09-08T03:26:58.969Z,12.43
2018-09-08T03:27:58.955Z,12.54
2018-09-08T03:28:58.939Z,12.47
2018-09-08T03:29:58.918Z,12.47
2018-09-08T03:30:58.899Z,12.46
2018-09-08T03:31:59.194Z,12.47
2018-09-08T03:32:58.912Z,12.43
2018-09-08T03:33:58.846Z,12.46
2018-09-08T03:34:58.826Z,12.43
2018-09-08T03:35:58.807Z,12.28
2018-09-08T03:36:58.790Z,12.33
2018-09-08T03:37:58.775Z,12.30
2018-09-08T03:38:59.057Z,12.33
2018-09-08T03:39:58.741Z,12.33
2018-09-08T03:40:58.720Z,12.33
2018-09-08T03:41:58.802Z,12.28
2018-09-08T03:42:58.734Z,12.36
2018-09-08T03:43:58.666Z,12.32
2018-09-08T03:44:58.650Z,12.35
2018-09-08T03:45:58.932Z,12.26
2018-09-08T03:46:58.613Z,12.21
2018-09-08T03:47:58.603Z,12.21
2018-09-08T03:48:58.927Z,12.23
2018-09-08T03:49:58.568Z,12.25
2018-09-08T03:50:58.539Z,12.30
2018-09-08T03:51:58.524Z,12.25
2018-09-08T03:52:58.804Z,12.15
2018-09-08T03:53:58.491Z,12.17
2018-09-08T03:54:58.471Z,12.18
2018-09-08T03:55:58.450Z,12.11
2018-09-08T03:56:58.435Z,12.08
2018-09-08T03:57:58.425Z,12.13
2018-09-08T03:58:58.422Z,12.05
2018-09-08T03:59:58.679Z,12.08
2018-09-08T04:00:58.363Z,12.07
2018-09-08T04:01:58.345Z,12.04
2018-09-08T04:02:58.335Z,11.97
2018-09-08T04:03:58.358Z,12.00
2018-09-08T04:04:58.338Z,12.00
2018-09-08T04:05:58.287Z,11.89
2018-09-08T04:07:58.542Z,11.84
2018-09-08T04:08:58.287Z,11.95
2018-09-08T04:09:58.217Z,11.85
2018-09-08T04:10:58.265Z,11.79
2018-09-08T04:11:58.213Z,11.76
2018-09-08T04:12:58.146Z,11.79
2018-09-08T04:13:58.232Z,11.80
2018-09-08T04:14:58.410Z,11.80
2018-09-08T04:15:58.145Z,11.76
2018-09-08T04:16:58.072Z,11.67
2018-09-08T04:17:58.086Z,11.69
2018-09-08T04:18:58.040Z,11.74
2018-09-08T04:20:58.101Z,11.74
2018-09-08T04:21:58.285Z,11.76
2018-09-08T04:22:57.963Z,11.73
2018-09-08T04:23:58.008Z,11.74
2018-09-08T04:24:57.927Z,11.69
2018-09-08T04:25:57.909Z,11.58
2018-09-08T04:26:57.945Z,11.71
2018-09-08T04:27:58.179Z,11.70
2018-09-08T04:28:57.865Z,11.61
2018-09-08T04:29:57.840Z,11.58
2018-09-08T04:30:57.823Z,11.58
2018-09-08T04:31:57.799Z,11.56
2018-09-08T04:32:57.787Z,11.52
2018-09-08T04:33:58.115Z,11.56
2018-09-08T04:34:57.754Z,11.55
2018-09-08T04:35:57.728Z,11.56
2018-09-08T04:36:57.714Z,11.54
2018-09-08T04:37:57.752Z,11.56
2018-09-08T04:38:57.682Z,11.56
2018-09-08T04:39:57.957Z,11.43
2018-09-08T04:40:57.665Z,11.40
2018-09-08T04:41:57.629Z,11.38
2018-09-08T04:42:57.603Z,11.34
2018-09-08T04:43:57.653Z,11.36
2018-09-08T04:44:57.565Z,11.31
2018-09-08T04:45:57.850Z,11.34
2018-09-08T04:46:57.531Z,11.27
2018-09-08T04:47:57.520Z,11.36
2018-09-08T04:49:57.484Z,11.34
2018-09-08T04:50:57.462Z,11.34
2018-09-08T04:51:57.799Z,11.38
2018-09-08T04:52:57.478Z,11.41
2018-09-08T04:53:57.410Z,11.41
2018-09-08T04:54:57.444Z,11.33
2018-09-08T04:55:57.445Z,11.38
2018-09-08T04:56:57.398Z,11.31
2018-09-08T04:57:57.689Z,11.25
2018-09-08T04:58:57.317Z,11.27
2018-09-08T04:59:57.312Z,11.36
2018-09-08T05:00:57.283Z,11.31
2018-09-08T05:01:57.267Z,11.31
2018-09-08T05:02:57.297Z,11.43
2018-09-08T05:03:57.224Z,11.40
2018-09-08T05:04:57.507Z,11.40
2018-09-08T05:06:57.172Z,11.45
2018-09-08T05:07:57.201Z,11.45
2018-09-08T05:08:57.241Z,11.49
2018-09-08T05:09:57.135Z,11.59
2018-09-08T05:10:57.099Z,11.59
2018-09-08T05:11:57.377Z,11.62
2018-09-08T05:12:57.064Z,11.64
2018-09-08T05:13:57.090Z,11.70
2018-09-08T05:15:57.002Z,11.64
2018-09-08T05:16:57.147Z,11.71
2018-09-08T05:17:56.972Z,11.85
2018-09-08T05:18:57.253Z,11.77
2018-09-08T05:19:56.936Z,11.89
2018-09-08T05:20:57.096Z,12.04
2018-09-08T05:21:56.975Z,12.00
2018-09-08T05:22:56.938Z,12.04
2018-09-08T05:23:56.907Z,12.03
2018-09-08T05:24:56.863Z,12.05
2018-09-08T05:25:57.123Z,12.03
2018-09-08T05:26:56.806Z,12.17
2018-09-08T05:27:56.792Z,12.15
2018-09-08T05:28:56.771Z,12.17
2018-09-08T05:29:56.803Z,12.26
2018-09-08T05:30:56.737Z,12.23
2018-09-08T05:32:00.239Z,12.30
2018-09-08T05:32:56.995Z,12.29
2018-09-08T05:33:56.833Z,12.48
2018-09-08T05:34:56.714Z,12.41
2018-09-08T05:35:56.972Z,12.50
2018-09-08T05:36:56.630Z,12.53
2018-09-08T05:37:56.742Z,12.63
2018-09-08T05:38:56.820Z,12.62
2018-09-08T05:39:56.927Z,12.69
2018-09-08T05:40:56.557Z,12.73
2018-09-08T05:41:56.584Z,12.77
2018-09-08T05:42:56.617Z,12.73
2018-09-08T05:43:56.499Z,12.81
2018-09-08T05:44:56.483Z,12.84
2018-09-08T05:45:56.466Z,12.83
2018-09-08T05:46:56.796Z,12.86
2018-09-08T05:47:56.563Z,13.05
2018-09-08T05:49:56.404Z,13.05
2018-09-08T05:51:56.460Z,13.05
2018-09-08T05:52:56.687Z,13.04
2018-09-08T05:53:57.897Z,13.16
2018-09-08T05:54:56.307Z,13.20
2018-09-08T05:55:56.284Z,13.23
2018-09-08T05:56:56.270Z,13.35
2018-09-08T05:57:56.853Z,13.42
2018-09-08T05:58:56.582Z,13.39
2018-09-08T05:59:56.365Z,13.47
2018-09-08T06:00:56.266Z,13.49
2018-09-08T06:01:56.226Z,13.43
2018-09-08T06:02:56.161Z,13.54
2018-09-08T06:03:56.143Z,13.58
2018-09-08T06:04:56.425Z,13.61
2018-09-08T06:05:56.107Z,13.71
2018-09-08T06:06:56.093Z,13.79
2018-09-08T06:07:56.127Z,13.75
2018-09-08T06:08:56.054Z,13.75
2018-09-08T06:09:56.040Z,13.78
2018-09-08T06:10:56.329Z,13.71
2018-09-08T06:11:56.004Z,13.71
2018-09-08T06:12:56.152Z,13.68
2018-09-08T06:13:56.019Z,13.72
2018-09-08T06:14:55.954Z,13.78
2018-09-08T06:15:55.941Z,13.71
2018-09-08T06:16:56.467Z,13.65
2018-09-08T06:17:55.904Z,13.68
2018-09-08T06:18:56.007Z,13.72
2018-09-08T06:19:55.872Z,13.73
2018-09-08T06:20:55.849Z,13.68
2018-09-08T06:21:55.834Z,13.79
2018-09-08T06:22:56.216Z,13.78
2018-09-08T06:23:56.603Z,13.71
2018-09-08T06:24:56.006Z,13.68
2018-09-08T06:25:56.064Z,13.73
2018-09-08T06:26:55.751Z,13.71
2018-09-08T06:27:55.743Z,13.72
2018-09-08T06:28:56.083Z,13.63
2018-09-08T06:29:55.700Z,13.64
2018-09-08T06:30:55.883Z,13.60
2018-09-08T06:31:56.072Z,13.61
2018-09-08T06:32:55.697Z,13.55
2018-09-08T06:33:55.702Z,13.63
2018-09-08T06:34:55.675Z,13.61
2018-09-08T06:35:55.892Z,13.65
2018-09-08T06:36:55.575Z,13.61
2018-09-08T06:37:55.629Z,13.75
2018-09-08T06:38:55.601Z,13.75
2018-09-08T06:39:55.582Z,13.76
2018-09-08T06:40:55.512Z,13.82
2018-09-08T06:41:55.548Z,13.88
2018-09-08T06:42:55.935Z,13.98
2018-09-08T06:43:55.465Z,13.93
2018-09-08T06:44:55.522Z,14.04
2018-09-08T06:46:55.408Z,14.03
2018-09-08T06:48:55.750Z,14.22
2018-09-08T06:49:55.409Z,14.19
2018-09-08T06:50:55.337Z,14.12
2018-09-08T06:51:55.333Z,14.27
2018-09-08T06:52:55.313Z,14.27
2018-09-08T06:53:55.303Z,14.37
2018-09-08T06:54:55.287Z,14.48
2018-09-08T06:55:55.620Z,14.38
2018-09-08T06:56:55.257Z,14.45
2018-09-08T06:58:55.225Z,14.52
2018-09-08T06:59:55.248Z,14.55
2018-09-08T07:00:55.173Z,14.53
2018-09-08T07:01:55.164Z,14.55
2018-09-08T07:02:55.143Z,14.61
2018-09-08T07:03:55.194Z,14.61
2018-09-08T07:04:55.114Z,14.69
2018-09-08T07:05:55.142Z,14.63
2018-09-08T07:06:55.073Z,14.71
2018-09-08T07:07:55.060Z,14.73
2018-09-08T07:08:55.395Z,14.73
2018-09-08T07:09:55.024Z,14.74
2018-09-08T07:10:55.010Z,14.87
2018-09-08T07:11:55.073Z,14.87
2018-09-08T07:12:54.977Z,15.01
2018-09-08T07:13:54.959Z,14.99
2018-09-08T07:14:54.945Z,15.04
2018-09-08T07:15:55.235Z,15.08
2018-09-08T07:16:55.085Z,15.15
2018-09-08T07:17:55.131Z,15.22
2018-09-08T07:18:54.971Z,15.30
2018-09-08T07:19:54.858Z,15.30
2018-09-08T07:20:54.848Z,15.29
2018-09-08T07:21:55.127Z,15.32
2018-09-08T07:23:54.852Z,15.36
2018-09-08T07:24:54.819Z,15.41
2018-09-08T07:25:54.761Z,15.48
2018-09-08T07:26:54.748Z,15.51
2018-09-08T07:27:55.143Z,15.60
2018-09-08T07:28:54.723Z,15.69
2018-09-08T07:29:54.697Z,15.72
2018-09-08T07:30:54.768Z,15.81
2018-09-08T07:31:54.664Z,15.73
2018-09-08T07:32:54.654Z,15.85
2018-09-08T07:33:54.934Z,15.91
2018-09-08T07:34:54.673Z,15.85
2018-09-08T07:35:54.606Z,15.88
2018-09-08T07:36:54.586Z,15.85
2018-09-08T07:37:54.574Z,15.88
2018-09-08T07:38:54.572Z,15.84
2018-09-08T07:40:54.824Z,15.99
2018-09-08T07:41:54.560Z,15.93
2018-09-08T07:42:54.494Z,15.93
2018-09-08T07:43:54.480Z,15.99
2018-09-08T07:44:54.463Z,16.09
2018-09-08T07:45:54.501Z,16.09
2018-09-08T07:47:55.112Z,16.25
2018-09-08T07:48:54.409Z,16.18
2018-09-08T07:50:54.376Z,16.49
2018-09-08T07:51:55.563Z,16.57
2018-09-08T07:52:54.355Z,16.61
2018-09-08T07:53:55.349Z,16.61
2018-09-08T07:54:54.359Z,16.69
2018-09-08T07:55:54.298Z,16.73
2018-09-08T07:57:54.265Z,16.87
2018-09-08T07:58:54.344Z,16.94
2018-09-08T07:59:54.595Z,16.97
2018-09-08T08:00:54.221Z,16.97
2018-09-08T08:01:54.210Z,17.07
2018-09-08T08:02:54.187Z,17.01
2018-09-08T08:03:54.179Z,17.10
2018-09-08T08:04:54.167Z,17.25
2018-09-08T08:05:54.143Z,17.17
2018-09-08T08:06:54.133Z,17.22
2018-09-08T08:07:54.294Z,17.20
2018-09-08T08:08:54.156Z,17.20
2018-09-08T08:09:54.155Z,17.27
2018-09-08T08:10:54.377Z,17.31
2018-09-08T08:11:54.056Z,17.31
2018-09-08T08:12:54.348Z,17.43
2018-09-08T08:13:54.049Z,17.38
2018-09-08T08:14:54.028Z,17.47
2018-09-08T08:15:54.003Z,17.56
2018-09-08T08:16:54.293Z,17.62
2018-09-08T08:17:53.983Z,17.76
2018-09-08T08:18:54.059Z,17.78
2018-09-08T08:19:54.255Z,17.71
2018-09-08T08:20:53.933Z,17.59
2018-09-08T08:21:53.920Z,17.56
2018-09-08T08:22:54.292Z,17.43
2018-09-08T08:23:53.886Z,17.46
2018-09-08T08:24:53.881Z,17.47
2018-09-08T08:25:53.958Z,17.63
2018-09-08T08:26:54.154Z,17.76
2018-09-08T08:28:53.822Z,18.06
2018-09-08T08:29:53.806Z,18.06
2018-09-08T08:30:53.795Z,18.12
2018-09-08T08:31:53.786Z,18.17
2018-09-08T08:32:53.798Z,18.15
2018-09-08T08:33:54.102Z,18.17
2018-09-08T08:34:53.792Z,18.06
2018-09-08T08:35:56.758Z,18.20
2018-09-08T08:36:53.779Z,18.34
2018-09-08T08:37:53.835Z,18.36
2018-09-08T08:39:54.020Z,18.27
2018-09-08T08:40:53.715Z,18.42
2018-09-08T08:41:53.697Z,18.33
2018-09-08T08:42:53.700Z,18.33
2018-09-08T08:43:53.635Z,18.43
2018-09-08T08:44:53.610Z,18.36
2018-09-08T08:45:53.665Z,18.30
2018-09-08T08:46:55.412Z,18.26
2018-09-08T08:47:54.364Z,18.21
2018-09-08T08:48:53.577Z,18.13
2018-09-08T08:49:53.628Z,18.23
2018-09-08T08:50:53.530Z,18.51
2018-09-08T08:51:53.518Z,18.52
2018-09-08T08:52:53.699Z,18.49
2018-09-08T08:53:53.837Z,18.34
2018-09-08T08:54:53.475Z,18.43
2018-09-08T08:55:53.539Z,18.56
2018-09-08T08:56:53.536Z,18.51
2018-09-08T08:57:53.490Z,18.75
2018-09-08T08:59:58.829Z,18.38
2018-09-08T09:00:53.599Z,18.52
2018-09-08T09:01:53.388Z,18.71
2018-09-08T09:02:53.759Z,18.86
2018-09-08T09:03:53.434Z,18.60
2018-09-08T09:04:53.393Z,18.42
2018-09-08T09:05:53.335Z,18.57
2018-09-08T09:06:53.975Z,18.82
2018-09-08T09:07:53.303Z,18.86
2018-09-08T09:08:53.311Z,19.00
2018-09-08T09:09:53.344Z,19.27
2018-09-08T09:10:53.269Z,19.32
2018-09-08T09:11:54.168Z,19.32
2018-09-08T09:12:53.328Z,19.00
2018-09-08T09:13:53.236Z,18.85
2018-09-08T09:14:53.289Z,18.64
2018-09-08T09:15:53.359Z,18.43
2018-09-08T09:16:53.204Z,18.18
2018-09-08T09:17:53.552Z,18.24
2018-09-08T09:18:53.546Z,18.28
2018-09-08T09:19:53.159Z,18.24
2018-09-08T09:20:53.198Z,18.23
2018-09-08T09:21:53.301Z,18.21
2018-09-08T09:22:53.348Z,18.13
2018-09-08T09:23:53.419Z,18.30
2018-09-08T09:24:53.817Z,18.23
2018-09-08T09:25:53.090Z,18.13
2018-09-08T09:26:53.072Z,18.13
2018-09-08T09:27:53.063Z,18.15
2018-09-08T09:28:53.047Z,18.28
2018-09-08T09:29:53.334Z,18.26
2018-09-08T09:30:53.029Z,18.23
2018-09-08T09:31:53.086Z,18.21
2018-09-08T09:33:52.980Z,18.71
2018-09-08T09:34:53.395Z,18.96
2018-09-08T09:35:53.455Z,19.12
2018-09-08T09:36:52.952Z,19.31
2018-09-08T09:37:53.183Z,19.53
2018-09-08T09:38:53.017Z,19.30
2018-09-08T09:39:52.909Z,18.75
2018-09-08T09:40:53.192Z,18.60
2018-09-08T09:41:53.095Z,18.56
2018-09-08T09:42:53.241Z,18.57
2018-09-08T09:43:52.853Z,18.57
2018-09-08T09:44:52.843Z,18.68
2018-09-08T09:45:52.829Z,18.91
2018-09-08T09:46:52.873Z,19.15
2018-09-08T09:47:52.814Z,19.31
2018-09-08T09:48:52.794Z,19.70
2018-09-08T09:49:54.041Z,19.89
2018-09-08T09:50:53.847Z,20.08
2018-09-08T09:51:53.510Z,20.17
2018-09-08T09:52:53.763Z,20.18
2018-09-08T09:53:53.683Z,19.82
2018-09-08T09:54:52.722Z,19.79
2018-09-08T09:55:52.707Z,19.56
2018-09-08T09:56:52.996Z,19.37
2018-09-08T09:58:52.672Z,19.35
2018-09-08T09:59:52.660Z,19.74
2018-09-08T10:00:52.707Z,19.93
2018-09-08T10:02:53.515Z,20.26
2018-09-08T10:03:52.777Z,20.19
2018-09-08T10:04:52.603Z,20.17
2018-09-08T10:05:52.588Z,20.09
2018-09-08T10:06:52.880Z,20.00
2018-09-08T10:07:52.567Z,19.92
2018-09-08T10:08:52.608Z,20.04
2018-09-08T10:09:52.594Z,19.84
2018-09-08T10:11:53.321Z,20.29
2018-09-08T10:12:52.559Z,20.41
2018-09-08T10:13:52.500Z,20.53
2018-09-08T10:14:52.631Z,20.73
2018-09-08T10:15:53.078Z,21.08
2018-09-08T10:16:52.997Z,20.75
2018-09-08T10:17:52.464Z,20.86
2018-09-08T10:18:54.224Z,20.70
2018-09-08T10:19:52.465Z,20.14
2018-09-08T10:20:52.513Z,19.93
2018-09-08T10:21:52.681Z,19.86
2018-09-08T10:22:52.943Z,20.22
2018-09-08T10:24:04.340Z,20.55
2018-09-08T10:24:52.449Z,20.90
2018-09-08T10:25:53.584Z,21.37
2018-09-08T10:26:52.832Z,21.00
2018-09-08T10:31:52.897Z,20.42
2018-09-08T10:32:52.289Z,20.34
2018-09-08T10:33:52.278Z,20.39
2018-09-08T10:34:52.331Z,20.44
2018-09-08T10:35:52.257Z,20.36
2018-09-08T10:36:52.254Z,20.42
2018-09-08T10:37:52.374Z,20.52
2018-09-08T10:38:52.528Z,20.42
2018-09-08T10:39:52.212Z,20.27
2018-09-08T10:40:52.200Z,20.39
2018-09-08T10:41:52.188Z,20.33
2018-09-08T10:43:52.324Z,20.27
2018-09-08T10:44:52.463Z,20.41
2018-09-08T10:45:52.150Z,20.55
2018-09-08T10:46:52.139Z,20.52
2018-09-08T10:47:52.123Z,20.65
2018-09-08T10:48:52.115Z,20.52
2018-09-08T10:49:52.255Z,20.48
2018-09-08T10:50:52.119Z,20.34
2018-09-08T10:51:52.380Z,20.27
2018-09-08T10:52:52.084Z,20.14
2018-09-08T10:53:52.116Z,20.05
2018-09-08T10:54:52.278Z,20.07
2018-09-08T10:55:52.360Z,19.99
2018-09-08T10:56:52.031Z,20.00
2018-09-08T10:57:52.563Z,20.07
2018-09-08T10:58:52.104Z,20.05
2018-09-08T11:00:52.016Z,19.87
2018-09-08T11:01:52.108Z,19.77
2018-09-08T11:02:52.299Z,19.82
2018-09-08T11:03:52.245Z,19.93
2018-09-08T11:04:51.974Z,20.26
2018-09-08T11:05:51.934Z,20.22
2018-09-08T11:06:51.969Z,20.23
2018-09-08T11:07:52.058Z,20.75
2018-09-08T11:08:51.890Z,21.08
2018-09-08T11:09:51.880Z,21.41
2018-09-08T11:10:52.167Z,21.14
2018-09-08T11:11:51.859Z,21.20
2018-09-08T11:12:51.895Z,21.19
2018-09-08T11:13:52.131Z,21.38
2018-09-08T11:14:51.821Z,21.40
2018-09-08T11:15:51.891Z,21.37
2018-09-08T11:16:51.799Z,21.00
2018-09-08T11:17:52.100Z,21.08
2018-09-08T11:18:51.854Z,21.38
2018-09-08T11:19:51.820Z,21.56
2018-09-08T11:20:51.761Z,21.60
2018-09-08T11:21:51.762Z,21.41
2018-09-08T11:22:51.737Z,21.41
2018-09-08T11:23:51.758Z,21.00
2018-09-08T11:24:52.018Z,20.83
2018-09-08T11:25:52.017Z,21.26
2018-09-08T11:26:51.693Z,21.44
2018-09-08T11:27:51.678Z,21.47
2018-09-08T11:28:51.679Z,21.47
2018-09-08T11:29:51.663Z,21.81
2018-09-08T11:30:51.657Z,22.31
2018-09-08T11:31:52.120Z,22.44
2018-09-08T11:32:51.643Z,22.46
2018-09-08T11:33:51.632Z,22.43
2018-09-08T11:34:51.620Z,22.33
2018-09-08T11:35:51.604Z,22.43
2018-09-08T11:36:51.797Z,22.53
2018-09-08T11:37:51.648Z,22.49
2018-09-08T11:38:51.627Z,22.00
2018-09-08T11:39:51.627Z,21.84
2018-09-08T11:40:51.555Z,21.63
2018-09-08T11:41:51.543Z,21.55
2018-09-08T11:42:51.528Z,21.22
2018-09-08T11:43:51.522Z,21.07
2018-09-08T11:44:52.085Z,21.14
2018-09-08T11:45:51.507Z,20.90
2018-09-08T11:46:51.487Z,20.77
2018-09-08T11:47:51.478Z,20.65
2018-09-08T11:48:51.467Z,20.70
2018-09-08T11:49:51.461Z,20.68
2018-09-08T11:50:51.750Z,20.63
2018-09-08T11:52:51.495Z,20.48
2018-09-08T11:53:51.422Z,20.37
2018-09-08T11:54:51.409Z,20.37
2018-09-08T11:55:51.454Z,20.41
2018-09-08T11:56:51.391Z,20.39
2018-09-08T11:57:51.755Z,20.39
2018-09-08T11:58:51.373Z,20.42
2018-09-08T11:59:51.504Z,20.63
2018-09-08T12:00:51.352Z,20.73
2018-09-08T12:01:51.578Z,20.79
2018-09-08T12:02:51.535Z,21.03
2018-09-08T12:03:51.866Z,21.23
2018-09-08T12:04:51.581Z,21.20
2018-09-08T12:05:51.528Z,21.38
2018-09-08T12:06:51.330Z,21.60
2018-09-08T12:07:51.334Z,21.47
2018-09-08T12:08:51.263Z,21.40
2018-09-08T12:09:51.856Z,21.35
2018-09-08T12:10:51.249Z,21.32
2018-09-08T12:11:51.374Z,21.35
2018-09-08T12:12:51.389Z,21.40
2018-09-08T12:13:51.477Z,21.35
2018-09-08T12:14:51.429Z,21.11
2018-09-08T12:15:51.842Z,21.13
2018-09-08T12:16:51.178Z,20.98
2018-09-08T12:18:51.150Z,20.73
2018-09-08T12:19:52.522Z,21.25
2018-09-08T12:20:51.181Z,21.98
2018-09-08T12:21:51.656Z,22.03
2018-09-08T12:22:52.530Z,22.16
2018-09-08T12:23:51.098Z,22.52
2018-09-08T12:24:51.142Z,22.18
2018-09-08T12:25:51.413Z,21.91
2018-09-08T12:26:51.135Z,22.04
2018-09-08T12:27:51.418Z,22.37
2018-09-08T12:28:51.038Z,22.44
2018-09-08T12:29:51.334Z,22.15
2018-09-08T12:30:51.448Z,21.85
2018-09-08T12:31:51.391Z,21.55
2018-09-08T12:32:58.405Z,21.37
2018-09-08T12:34:08.493Z,21.18
2018-09-08T12:35:10.948Z,21.14
2018-09-08T12:35:57.910Z,21.10
2018-09-08T12:37:04.200Z,20.93
2018-09-08T12:37:50.947Z,21.01
2018-09-08T12:38:51.565Z,21.07
2018-09-08T12:39:51.133Z,20.89
2018-09-08T12:40:57.535Z,20.86
2018-09-08T12:41:52.623Z,20.89
2018-09-08T12:42:50.900Z,20.92
2018-09-08T12:43:51.462Z,20.95
2018-09-08T12:44:50.868Z,20.89
2018-09-08T12:45:50.909Z,20.95
2018-09-08T12:46:50.860Z,21.01
2018-09-08T12:47:51.187Z,20.98
2018-09-08T12:48:50.830Z,20.92
2018-09-08T12:49:50.823Z,20.92
2018-09-08T12:50:50.908Z,20.75
2018-09-08T12:51:50.805Z,20.65
2018-09-08T12:52:50.854Z,20.64
2018-09-08T12:53:50.776Z,20.68
2018-09-08T12:54:51.117Z,20.68
2018-09-08T12:55:50.758Z,20.79
2018-09-08T12:56:51.352Z,21.22
2018-09-08T12:57:52.147Z,21.80
2018-09-08T12:58:51.332Z,21.60
2018-09-08T12:59:50.714Z,21.47
2018-09-08T13:00:50.706Z,21.43
2018-09-08T13:01:51.039Z,21.84
2018-09-08T13:02:50.747Z,21.75
2018-09-08T13:03:50.731Z,21.62
2018-09-08T13:04:50.896Z,21.80
2018-09-08T13:06:50.635Z,21.56
2018-09-08T13:07:50.986Z,21.48
2018-09-08T13:08:50.990Z,21.25
2018-09-08T13:09:50.608Z,21.14
2018-09-08T13:10:50.598Z,21.04
2018-09-08T13:11:50.641Z,21.01
2018-09-08T13:12:50.645Z,21.03
2018-09-08T13:13:50.870Z,20.95
2018-09-08T13:14:50.546Z,20.97
2018-09-08T13:15:50.835Z,21.03
2018-09-08T13:16:50.593Z,21.53
2018-09-08T13:17:50.515Z,22.03
2018-09-08T13:18:50.524Z,22.58
2018-09-08T13:19:50.506Z,22.76
2018-09-08T13:20:50.643Z,22.70
2018-09-08T13:21:50.475Z,22.61
2018-09-08T13:22:50.879Z,22.62
2018-09-08T13:23:50.446Z,22.16
2018-09-08T13:24:50.447Z,21.94
2018-09-08T13:25:50.533Z,21.69
2018-09-08T13:26:50.420Z,21.40
2018-09-08T13:27:50.421Z,21.37
2018-09-08T13:28:50.446Z,21.37
2018-09-08T13:29:50.689Z,21.22
2018-09-08T13:30:50.887Z,21.20
2018-09-08T13:31:50.493Z,21.35
2018-09-08T13:32:50.511Z,21.40
2018-09-08T13:33:50.453Z,21.58
2018-09-08T13:34:50.440Z,21.47
2018-09-08T13:35:50.624Z,21.53